Time;durP1;ratioP1;P1;durP2;ratioP2;P2;SDS_P1;SDS_P2;PMS_P1;PMS_P2;Temp;Humidity;BMP_temperature;BMP_pressure;BME280_temperature;BME280_humidity;BME280_pressure;Samples;Min_cycle;Max_cycle;Signal;HPM_P1;HPM_P2
2022/01/07 00:00:16;;;;;;;6.60;3.70;;;;;;;;;;2004619;28;20408;-69
2022/01/07 00:01:15;;;;;;;5.45;3.90;;;;;;;;;;2004721;28;20381;-70
2022/01/07 00:02:14;;;;;;;6.77;3.30;;;;;;;;;;2004802;28;20197;-69
2022/01/07 00:03:14;;;;;;;5.53;3.00;;;;;;;;;;2004828;28;20403;-69
2022/01/07 00:04:13;;;;;;;5.35;3.63;;;;;;;;;;2004769;28;20409;-69
2022/01/07 00:05:12;;;;;;;6.47;4.27;;;;;;;;;;2004652;28;20168;-69
2022/01/07 00:06:11;;;;;;;8.23;3.70;;;;;;;;;;2003897;28;20554;-69
2022/01/07 00:07:10;;;;;;;5.30;3.57;;;;;;;;;;1996128;28;20182;-69
2022/01/07 00:08:09;;;;;;;7.15;3.35;;;;;;;;;;2003473;28;20411;-70
2022/01/07 00:09:08;;;;;;;9.90;4.20;;;;;;;;;;2004577;28;20649;-69
2022/01/07 00:10:08;;;;;;;6.33;3.30;;;;;;;;;;2004710;28;20423;-69
2022/01/07 00:11:07;;;;;;;7.07;3.30;;;;;;;;;;2004271;28;20415;-70
2022/01/07 00:12:06;;;;;;;7.50;3.43;;;;;;;;;;2004083;28;20209;-69
2022/01/07 00:13:05;;;;;;;7.15;3.45;;;;;;;;;;2004573;28;20407;-69
2022/01/07 00:14:04;;;;;;;7.70;3.70;;;;;;;;;;2004604;28;20172;-70
2022/01/07 00:15:04;;;;;;;6.23;3.10;;;;;;;;;;2004594;28;20393;-69
2022/01/07 00:16:03;;;;;;;12.77;3.60;;;;;;;;;;2011911;28;20407;-69
2022/01/07 00:17:02;;;;;;;7.00;3.50;;;;;;;;;;2011927;28;20256;-70
2022/01/07 00:18:01;;;;;;;10.85;3.30;;;;;;;;;;2004922;28;20687;-70
2022/01/07 00:19:00;;;;;;;5.93;3.55;;;;;;;;;;2004574;28;20166;-70
2022/01/07 00:19:59;;;;;;;3.90;2.90;;;;;;;;;;2004480;28;20647;-70
2022/01/07 00:20:58;;;;;;;4.80;3.60;;;;;;;;;;2004517;28;20462;-70
2022/01/07 00:21:57;;;;;;;8.50;4.35;;;;;;;;;;2004688;28;20400;-70
2022/01/07 00:22:56;;;;;;;7.90;3.60;;;;;;;;;;2004623;28;20515;-70
2022/01/07 00:23:55;;;;;;;6.47;3.72;;;;;;;;;;2004723;28;21003;-70
2022/01/07 00:24:54;;;;;;;5.67;3.30;;;;;;;;;;2004724;28;20296;-70
2022/01/07 00:25:53;;;;;;;10.13;3.73;;;;;;;;;;2004485;28;20404;-70
2022/01/07 00:26:52;;;;;;;7.00;4.10;;;;;;;;;;2004499;28;20459;-70
2022/01/07 00:27:52;;;;;;;5.27;3.20;;;;;;;;;;2004542;28;20455;-70
2022/01/07 00:28:51;;;;;;;9.30;3.92;;;;;;;;;;2004757;28;20460;-70
2022/01/07 00:29:50;;;;;;;5.90;3.53;;;;;;;;;;2004669;28;20193;-69
2022/01/07 00:30:49;;;;;;;7.43;3.50;;;;;;;;;;2004592;28;20412;-70
2022/01/07 00:31:48;;;;;;;5.27;3.30;;;;;;;;;;2004415;28;20436;-70
2022/01/07 00:32:47;;;;;;;3.47;2.90;;;;;;;;;;2004387;28;20462;-70
2022/01/07 00:33:46;;;;;;;7.90;3.15;;;;;;;;;;2004594;28;20815;-70
2022/01/07 00:34:45;;;;;;;6.50;3.63;;;;;;;;;;2003912;28;20333;-70
2022/01/07 00:35:44;;;;;;;6.30;3.37;;;;;;;;;;2004005;28;20408;-71
2022/01/07 00:36:43;;;;;;;7.20;3.58;;;;;;;;;;2004419;28;20506;-70
2022/01/07 00:37:42;;;;;;;6.63;3.47;;;;;;;;;;2004583;28;20177;-70
2022/01/07 00:38:41;;;;;;;7.18;3.50;;;;;;;;;;2004563;28;20408;-70
2022/01/07 00:39:40;;;;;;;8.05;3.55;;;;;;;;;;2004605;28;20168;-70
2022/01/07 00:40:39;;;;;;;8.20;3.70;;;;;;;;;;2003869;28;20193;-70
2022/01/07 00:41:38;;;;;;;5.65;3.03;;;;;;;;;;2004053;28;20431;-70
2022/01/07 00:42:37;;;;;;;5.50;3.40;;;;;;;;;;2004477;28;20224;-70
2022/01/07 00:43:36;;;;;;;4.93;3.10;;;;;;;;;;2004475;28;20446;-70
2022/01/07 00:44:35;;;;;;;5.65;3.15;;;;;;;;;;2003760;28;20438;-70
2022/01/07 00:45:34;;;;;;;9.47;3.73;;;;;;;;;;2003905;28;20718;-70
2022/01/07 00:46:33;;;;;;;5.13;3.80;;;;;;;;;;2003333;28;20432;-70
2022/01/07 00:47:32;;;;;;;4.97;3.33;;;;;;;;;;1995987;28;20900;-70
2022/01/07 00:48:31;;;;;;;9.18;3.00;;;;;;;;;;2003653;28;20448;-70
2022/01/07 00:49:30;;;;;;;9.63;5.03;;;;;;;;;;2004476;28;20184;-70
2022/01/07 00:50:31;;;;;;;5.87;3.03;;;;;;;;;;2004609;28;20770;-70
2022/01/07 00:51:30;;;;;;;7.07;3.45;;;;;;;;;;2004789;28;20397;-70
2022/01/07 00:52:29;;;;;;;5.37;3.77;;;;;;;;;;2006236;28;20523;-70
2022/01/07 00:53:28;;;;;;;5.83;3.37;;;;;;;;;;2013664;28;20407;-70
2022/01/07 00:54:27;;;;;;;5.73;3.40;;;;;;;;;;2013939;28;20474;-70
2022/01/07 00:55:26;;;;;;;8.05;3.60;;;;;;;;;;2013699;28;20420;-70
2022/01/07 00:56:25;;;;;;;7.80;3.70;;;;;;;;;;2008247;28;20200;-71
2022/01/07 00:57:24;;;;;;;7.53;3.03;;;;;;;;;;2004355;28;20173;-70
2022/01/07 00:58:23;;;;;;;6.90;3.75;;;;;;;;;;2004499;28;20408;-70
2022/01/07 00:59:22;;;;;;;8.23;4.00;;;;;;;;;;2004399;28;20223;-70
2022/01/07 01:00:22;;;;;;;5.27;3.23;;;;;;;;;;2004354;28;20487;-71
2022/01/07 01:01:21;;;;;;;6.68;3.20;;;;;;;;;;2004323;28;20541;-71
2022/01/07 01:02:20;;;;;;;5.60;3.30;;;;;;;;;;2004344;28;20231;-70
2022/01/07 01:03:19;;;;;;;6.53;3.20;;;;;;;;;;2003688;28;20451;-70
2022/01/07 01:04:18;;;;;;;6.83;3.73;;;;;;;;;;2003777;28;20404;-70
2022/01/07 01:05:18;;;;;;;7.70;2.88;;;;;;;;;;2004293;28;20487;-70
2022/01/07 01:06:16;;;;;;;4.20;3.35;;;;;;;;;;2004295;28;20216;-70
2022/01/07 01:07:16;;;;;;;6.07;3.80;;;;;;;;;;2004308;28;20166;-70
2022/01/07 01:08:16;;;;;;;5.30;2.70;;;;;;;;;;2004271;28;20749;-70
2022/01/07 01:09:15;;;;;;;5.30;3.20;;;;;;;;;;2004565;28;20221;-70
2022/01/07 01:10:15;;;;;;;7.63;3.60;;;;;;;;;;2005926;28;20183;-70
2022/01/07 01:11:14;;;;;;;7.00;3.45;;;;;;;;;;2005859;28;20396;-70
2022/01/07 01:12:13;;;;;;;6.50;3.50;;;;;;;;;;2005896;28;20170;-70
2022/01/07 01:13:12;;;;;;;5.07;3.97;;;;;;;;;;2005883;28;20838;-71
2022/01/07 01:14:11;;;;;;;9.20;3.23;;;;;;;;;;2005837;28;20392;-70
2022/01/07 01:15:11;;;;;;;8.40;3.47;;;;;;;;;;2005173;28;20443;-70
2022/01/07 01:16:10;;;;;;;6.80;3.80;;;;;;;;;;2006289;28;20455;-70
2022/01/07 01:17:09;;;;;;;7.60;3.57;;;;;;;;;;2005805;28;20259;-70
2022/01/07 01:18:08;;;;;;;6.90;3.55;;;;;;;;;;2005757;28;20403;-71
2022/01/07 01:19:07;;;;;;;7.50;4.17;;;;;;;;;;2005770;28;20259;-71
2022/01/07 01:20:07;;;;;;;6.25;3.20;;;;;;;;;;2005863;28;20804;-70
2022/01/07 01:21:06;;;;;;;6.88;3.50;;;;;;;;;;2005632;28;20181;-70
2022/01/07 01:22:06;;;;;;;5.90;3.97;;;;;;;;;;2005769;28;20196;-70
2022/01/07 01:23:05;;;;;;;6.85;3.65;;;;;;;;;;2005865;28;20396;-70
2022/01/07 01:24:04;;;;;;;5.40;3.33;;;;;;;;;;2005756;28;20177;-71
2022/01/07 01:25:04;;;;;;;7.57;3.95;;;;;;;;;;2005803;28;20169;-70
2022/01/07 01:26:03;;;;;;;7.00;3.45;;;;;;;;;;2005033;28;20181;-70
2022/01/07 01:27:02;;;;;;;6.20;3.47;;;;;;;;;;2005244;28;20243;-70
2022/01/07 01:28:01;;;;;;;4.40;3.35;;;;;;;;;;2005991;28;20867;-70
2022/01/07 01:29:00;;;;;;;5.27;3.20;;;;;;;;;;2005741;28;20235;-71
2022/01/07 01:29:59;;;;;;;7.20;3.73;;;;;;;;;;2005738;28;20403;-71
2022/01/07 01:30:57;;;;;;;3.93;3.30;;;;;;;;;;2005799;28;20400;-71
2022/01/07 01:31:56;;;;;;;4.83;3.27;;;;;;;;;;2005716;28;20424;-70
2022/01/07 01:32:56;;;;;;;3.90;3.17;;;;;;;;;;2005680;28;20442;-70
2022/01/07 01:33:55;;;;;;;5.65;3.22;;;;;;;;;;2005740;28;20483;-71
2022/01/07 01:34:54;;;;;;;7.83;3.57;;;;;;;;;;2005756;28;20201;-71
2022/01/07 01:35:53;;;;;;;7.10;3.90;;;;;;;;;;2005780;28;20400;-71
2022/01/07 01:36:51;;;;;;;6.97;3.30;;;;;;;;;;2005797;28;20895;-71
2022/01/07 01:37:51;;;;;;;5.87;3.73;;;;;;;;;;2005929;28;20435;-71
2022/01/07 01:38:50;;;;;;;6.90;3.10;;;;;;;;;;2005735;28;20400;-70
2022/01/07 01:39:49;;;;;;;7.03;3.33;;;;;;;;;;2005793;28;20243;-70
2022/01/07 01:40:48;;;;;;;5.63;3.10;;;;;;;;;;2005741;28;20400;-70
2022/01/07 01:41:47;;;;;;;4.88;2.80;;;;;;;;;;2005647;28;20454;-70
2022/01/07 01:42:47;;;;;;;12.27;4.22;;;;;;;;;;2005594;28;20258;-71
2022/01/07 01:43:48;;;;;;;6.22;3.55;;;;;;;;;;2005639;28;20169;-70
2022/01/07 01:44:47;;;;;;;6.60;3.78;;;;;;;;;;2005619;28;20196;-70
2022/01/07 01:45:46;;;;;;;6.07;3.30;;;;;;;;;;2005590;28;20177;-71
2022/01/07 01:46:45;;;;;;;5.50;3.33;;;;;;;;;;2005578;28;20424;-71
2022/01/07 01:47:45;;;;;;;6.20;3.08;;;;;;;;;;2005710;28;20455;-71
2022/01/07 01:48:45;;;;;;;6.55;3.47;;;;;;;;;;2005601;28;20173;-70
2022/01/07 01:49:44;;;;;;;7.88;3.70;;;;;;;;;;2005667;28;20268;-71
2022/01/07 01:50:43;;;;;;;5.05;3.20;;;;;;;;;;2005585;28;20173;-71
2022/01/07 01:51:42;;;;;;;7.30;3.43;;;;;;;;;;2005669;28;20173;-70
2022/01/07 01:52:44;;;;;;;9.97;3.80;;;;;;;;;;2005773;28;20400;-71
2022/01/07 01:53:43;;;;;;;5.80;3.63;;;;;;;;;;2005521;28;20410;-71
2022/01/07 01:54:45;;;;;;;6.20;3.15;;;;;;;;;;2005504;28;20208;-71
2022/01/07 01:55:44;;;;;;;6.20;3.10;;;;;;;;;;2005618;28;20644;-70
2022/01/07 01:56:44;;;;;;;7.37;4.17;;;;;;;;;;2005438;28;20189;-70
2022/01/07 01:57:43;;;;;;;4.97;3.22;;;;;;;;;;2005462;28;20412;-70
2022/01/07 01:58:42;;;;;;;5.68;3.28;;;;;;;;;;2005620;28;20169;-71
2022/01/07 01:59:41;;;;;;;5.03;2.83;;;;;;;;;;2005528;28;20229;-71
2022/01/07 02:00:40;;;;;;;6.30;3.23;;;;;;;;;;2005555;28;20181;-70
2022/01/07 02:01:40;;;;;;;5.27;3.33;;;;;;;;;;2005543;28;20418;-71
2022/01/07 02:02:39;;;;;;;3.70;3.03;;;;;;;;;;2005483;28;20492;-70
2022/01/07 02:03:38;;;;;;;6.17;4.00;;;;;;;;;;2005815;28;20184;-71
2022/01/07 02:04:40;;;;;;;5.85;3.20;;;;;;;;;;2005500;28;20485;-71
2022/01/07 02:05:39;;;;;;;5.95;3.53;;;;;;;;;;2004796;28;20181;-71
2022/01/07 02:06:38;;;;;;;5.07;3.13;;;;;;;;;;2004847;28;20563;-71
2022/01/07 02:07:39;;;;;;;4.80;2.47;;;;;;;;;;2005266;28;20424;-71
2022/01/07 02:08:39;;;;;;;4.35;2.78;;;;;;;;;;2005291;28;20412;-71
2022/01/07 02:09:38;;;;;;;4.47;2.85;;;;;;;;;;2005613;28;20252;-71
2022/01/07 02:10:37;;;;;;;5.33;3.40;;;;;;;;;;2005449;28;20180;-71
2022/01/07 02:11:36;;;;;;;6.13;3.43;;;;;;;;;;2005466;28;20432;-71
2022/01/07 02:12:35;;;;;;;5.10;3.17;;;;;;;;;;2005547;28;20855;-71
2022/01/07 02:13:34;;;;;;;6.78;3.20;;;;;;;;;;2005543;28;20405;-71
2022/01/07 02:14:36;;;;;;;4.10;3.20;;;;;;;;;;2005485;28;20560;-71
2022/01/07 02:15:37;;;;;;;6.18;3.22;;;;;;;;;;2005443;28;20404;-71
2022/01/07 02:16:36;;;;;;;7.40;3.47;;;;;;;;;;2005360;28;20185;-71
2022/01/07 02:17:35;;;;;;;5.03;3.40;;;;;;;;;;2005604;28;20177;-71
2022/01/07 02:18:34;;;;;;;6.13;3.30;;;;;;;;;;2005427;28;20405;-71
2022/01/07 02:19:34;;;;;;;6.60;3.05;;;;;;;;;;2005184;28;20416;-71
2022/01/07 02:20:33;;;;;;;7.60;4.05;;;;;;;;;;2004910;28;20319;-69
2022/01/07 02:21:35;;;;;;;6.45;2.95;;;;;;;;;;2005018;28;20173;-69
2022/01/07 02:22:34;;;;;;;7.10;3.63;;;;;;;;;;2004749;28;20565;-71
2022/01/07 02:23:33;;;;;;;5.50;3.30;;;;;;;;;;2004698;28;20196;-71
2022/01/07 02:24:35;;;;;;;8.53;3.53;;;;;;;;;;2005270;28;20484;-71
2022/01/07 02:25:34;;;;;;;6.28;3.60;;;;;;;;;;2005333;28;20412;-71
2022/01/07 02:26:33;;;;;;;7.10;3.13;;;;;;;;;;2005293;28;20196;-71
2022/01/07 02:27:35;;;;;;;6.80;3.30;;;;;;;;;;2005337;28;20404;-71
2022/01/07 02:28:35;;;;;;;6.85;3.75;;;;;;;;;;2005391;28;20188;-71
2022/01/07 02:29:34;;;;;;;4.95;3.05;;;;;;;;;;2005396;28;20185;-71
2022/01/07 02:30:33;;;;;;;6.00;3.45;;;;;;;;;;2005264;28;20177;-71
2022/01/07 02:31:32;;;;;;;6.53;3.43;;;;;;;;;;2005161;28;20177;-71
2022/01/07 02:32:31;;;;;;;5.43;3.43;;;;;;;;;;2005273;28;20510;-71
2022/01/07 02:33:30;;;;;;;9.40;3.23;;;;;;;;;;2005201;28;20419;-71
2022/01/07 02:34:29;;;;;;;6.03;3.30;;;;;;;;;;2005185;28;20961;-71
2022/01/07 02:35:35;;;;;;;4.90;3.20;;;;;;;;;;2005305;28;20428;-71
2022/01/07 02:36:33;;;;;;;6.40;3.03;;;;;;;;;;2005375;28;20443;-71
2022/01/07 02:37:32;;;;;;;6.23;3.40;;;;;;;;;;2005228;28;20260;-71
2022/01/07 02:38:31;;;;;;;3.90;3.00;;;;;;;;;;2005281;28;20776;-70
2022/01/07 02:39:31;;;;;;;10.63;4.50;;;;;;;;;;2005250;28;20899;-71
2022/01/07 02:40:30;;;;;;;5.35;3.20;;;;;;;;;;2005250;28;20733;-71
2022/01/07 02:41:29;;;;;;;5.95;3.08;;;;;;;;;;2005215;28;20694;-70
2022/01/07 02:42:28;;;;;;;8.80;3.97;;;;;;;;;;2005143;28;20227;-70
2022/01/07 02:43:27;;;;;;;4.17;2.70;;;;;;;;;;2005162;28;20498;-71
2022/01/07 02:44:26;;;;;;;4.87;2.70;;;;;;;;;;2004970;28;20469;-71
2022/01/07 02:45:25;;;;;;;6.45;3.30;;;;;;;;;;2005172;28;20416;-71
2022/01/07 02:46:24;;;;;;;8.15;3.63;;;;;;;;;;2005133;28;20376;-71
2022/01/07 02:47:27;;;;;;;4.97;2.93;;;;;;;;;;2005174;28;20644;-71
2022/01/07 02:48:26;;;;;;;6.95;3.15;;;;;;;;;;2005195;28;20411;-71
2022/01/07 02:49:24;;;;;;;5.10;3.50;;;;;;;;;;2005211;28;20264;-71
2022/01/07 02:50:28;;;;;;;4.93;2.93;;;;;;;;;;2004734;28;20887;-71
2022/01/07 02:51:27;;;;;;;6.18;3.35;;;;;;;;;;2004671;28;20415;-71
2022/01/07 02:52:25;;;;;;;4.00;3.03;;;;;;;;;;2005126;28;20259;-71
2022/01/07 02:53:24;;;;;;;4.30;2.80;;;;;;;;;;2005190;28;20411;-71
2022/01/07 02:54:23;;;;;;;5.17;3.47;;;;;;;;;;2005109;28;20466;-71
2022/01/07 02:55:23;;;;;;;6.35;3.50;;;;;;;;;;2005076;28;20396;-70
2022/01/07 02:56:23;;;;;;;3.95;2.53;;;;;;;;;;2004900;28;20200;-71
2022/01/07 02:57:22;;;;;;;4.32;2.78;;;;;;;;;;2012396;28;20211;-71
2022/01/07 02:58:20;;;;;;;5.30;3.20;;;;;;;;;;2012537;28;20258;-71
2022/01/07 02:59:19;;;;;;;4.47;2.60;;;;;;;;;;2005419;28;20804;-71
2022/01/07 03:00:19;;;;;;;4.67;2.90;;;;;;;;;;2005154;28;20408;-71
2022/01/07 03:01:18;;;;;;;5.72;2.95;;;;;;;;;;2005212;28;20423;-71
2022/01/07 03:02:17;;;;;;;5.80;2.97;;;;;;;;;;2005143;28;20177;-71
2022/01/07 03:03:16;;;;;;;5.00;2.63;;;;;;;;;;2005065;28;20401;-71
2022/01/07 03:04:15;;;;;;;6.10;2.70;;;;;;;;;;2005128;28;20869;-71
2022/01/07 03:05:14;;;;;;;9.93;3.40;;;;;;;;;;2005122;28;20173;-71
2022/01/07 03:06:13;;;;;;;4.03;2.63;;;;;;;;;;2005001;28;20399;-71
2022/01/07 03:07:11;;;;;;;3.87;2.83;;;;;;;;;;2005036;28;20598;-71
2022/01/07 03:08:10;;;;;;;4.67;3.30;;;;;;;;;;2004884;28;20450;-71
2022/01/07 03:09:09;;;;;;;5.17;3.10;;;;;;;;;;2004832;28;20547;-70
2022/01/07 03:10:10;;;;;;;4.73;2.90;;;;;;;;;;2004973;28;20399;-71
2022/01/07 03:11:09;;;;;;;6.05;3.33;;;;;;;;;;2005008;28;20491;-71
2022/01/07 03:12:08;;;;;;;6.30;2.77;;;;;;;;;;2005108;28;20165;-70
2022/01/07 03:13:07;;;;;;;6.03;3.10;;;;;;;;;;2005050;28;20411;-71
2022/01/07 03:14:06;;;;;;;4.10;2.60;;;;;;;;;;2005144;28;20424;-71
2022/01/07 03:15:05;;;;;;;12.53;2.80;;;;;;;;;;2005048;28;20530;-71
2022/01/07 03:16:04;;;;;;;6.00;3.20;;;;;;;;;;2004969;28;20911;-71
2022/01/07 03:17:03;;;;;;;6.45;3.30;;;;;;;;;;2004284;28;20173;-71
2022/01/07 03:18:02;;;;;;;4.70;2.80;;;;;;;;;;2004431;28;20169;-71
2022/01/07 03:19:01;;;;;;;6.50;2.90;;;;;;;;;;2004909;28;20593;-71
2022/01/07 03:20:00;;;;;;;5.00;2.90;;;;;;;;;;2004933;28;20470;-71
2022/01/07 03:21:00;;;;;;;5.17;2.53;;;;;;;;;;2004830;28;20419;-71
2022/01/07 03:21:59;;;;;;;3.83;2.90;;;;;;;;;;2004963;28;20756;-71
2022/01/07 03:22:57;;;;;;;3.97;2.30;;;;;;;;;;2004948;28;20165;-71
2022/01/07 03:23:56;;;;;;;3.43;2.50;;;;;;;;;;2005009;28;20432;-71
2022/01/07 03:24:55;;;;;;;6.17;3.00;;;;;;;;;;2004979;28;20407;-70
2022/01/07 03:25:54;;;;;;;4.30;2.77;;;;;;;;;;2005005;28;20462;-71
2022/01/07 03:26:53;;;;;;;5.50;3.00;;;;;;;;;;2004829;28;20432;-71
2022/01/07 03:27:52;;;;;;;6.33;3.30;;;;;;;;;;2005013;28;20408;-71
2022/01/07 03:28:51;;;;;;;7.47;3.80;;;;;;;;;;2004210;28;20430;-71
2022/01/07 03:29:50;;;;;;;5.40;3.27;;;;;;;;;;2004311;28;20447;-71
2022/01/07 03:30:49;;;;;;;4.63;2.50;;;;;;;;;;2004853;28;20906;-71
2022/01/07 03:31:48;;;;;;;7.53;3.03;;;;;;;;;;2004966;28;20922;-71
2022/01/07 03:32:47;;;;;;;3.60;2.60;;;;;;;;;;2004614;28;20412;-70
2022/01/07 03:33:46;;;;;;;3.08;2.40;;;;;;;;;;2004874;28;20404;-71
2022/01/07 03:34:45;;;;;;;3.40;2.70;;;;;;;;;;2004857;28;20563;-70
2022/01/07 03:35:44;;;;;;;3.90;2.50;;;;;;;;;;2004919;28;20432;-70
2022/01/07 03:36:43;;;;;;;2.53;2.30;;;;;;;;;;2004899;28;20427;-71
2022/01/07 03:37:42;;;;;;;4.80;3.20;;;;;;;;;;2004782;28;20900;-70
2022/01/07 03:38:41;;;;;;;5.70;2.47;;;;;;;;;;2004206;28;20420;-70
2022/01/07 03:39:40;;;;;;;4.10;2.45;;;;;;;;;;2004311;28;20196;-71
2022/01/07 03:40:39;;;;;;;6.73;2.77;;;;;;;;;;2004834;28;20181;-70
2022/01/07 03:41:38;;;;;;;5.18;2.90;;;;;;;;;;2004850;28;20400;-70
2022/01/07 03:42:37;;;;;;;3.73;2.77;;;;;;;;;;2005197;28;20641;-71
2022/01/07 03:43:36;;;;;;;4.63;2.77;;;;;;;;;;2005247;28;20900;-71
2022/01/07 03:44:35;;;;;;;5.13;2.47;;;;;;;;;;2004944;28;20412;-70
2022/01/07 03:45:34;;;;;;;3.63;3.20;;;;;;;;;;2005201;28;20840;-70
2022/01/07 03:46:33;;;;;;;5.33;2.60;;;;;;;;;;2012975;28;20432;-70
2022/01/07 03:47:32;;;;;;;7.07;2.93;;;;;;;;;;2013712;28;20413;-70
2022/01/07 03:48:31;;;;;;;3.57;2.30;;;;;;;;;;2013563;28;20415;-70
2022/01/07 03:49:30;;;;;;;3.10;2.30;;;;;;;;;;2014201;28;20415;-70
2022/01/07 03:50:29;;;;;;;6.40;3.27;;;;;;;;;;2005896;28;20754;-71
2022/01/07 03:51:28;;;;;;;6.70;2.42;;;;;;;;;;2004733;28;20410;-71
2022/01/07 03:52:27;;;;;;;3.90;2.70;;;;;;;;;;2004723;28;20577;-71
2022/01/07 03:53:26;;;;;;;3.80;2.50;;;;;;;;;;2004691;28;20448;-71
2022/01/07 03:54:25;;;;;;;5.70;2.30;;;;;;;;;;2003961;28;20656;-70
2022/01/07 03:55:26;;;;;;;3.83;3.00;;;;;;;;;;2004144;28;20268;-71
2022/01/07 03:56:25;;;;;;;4.10;2.70;;;;;;;;;;2004503;28;20916;-70
2022/01/07 03:57:24;;;;;;;4.50;2.37;;;;;;;;;;2004699;28;20169;-71
2022/01/07 03:58:22;;;;;;;4.03;2.70;;;;;;;;;;2004662;28;20499;-71
2022/01/07 03:59:21;;;;;;;7.10;2.87;;;;;;;;;;2004705;28;20427;-71
2022/01/07 04:00:25;;;;;;;8.70;2.87;;;;;;;;;;2004632;28;20864;-71
2022/01/07 04:01:24;;;;;;;4.50;2.80;;;;;;;;;;2004640;28;20910;-71
2022/01/07 04:02:23;;;;;;;8.33;3.07;;;;;;;;;;2004650;28;20192;-70
2022/01/07 04:03:22;;;;;;;4.10;2.40;;;;;;;;;;2004730;28;20447;-71
2022/01/07 04:04:21;;;;;;;4.40;2.77;;;;;;;;;;2004663;28;20400;-71
2022/01/07 04:05:22;;;;;;;5.13;2.80;;;;;;;;;;2003974;28;20899;-70
2022/01/07 04:06:21;;;;;;;7.20;2.80;;;;;;;;;;2003887;28;20579;-71
2022/01/07 04:07:20;;;;;;;3.43;2.40;;;;;;;;;;2011799;28;20180;-71
2022/01/07 04:08:19;;;;;;;4.50;3.13;;;;;;;;;;2011837;28;20910;-70
2022/01/07 04:09:18;;;;;;;5.55;3.17;;;;;;;;;;2004609;28;20618;-70
2022/01/07 04:10:18;;;;;;;5.73;2.73;;;;;;;;;;2004675;28;20173;-71
2022/01/07 04:11:17;;;;;;;4.13;2.30;;;;;;;;;;2004698;28;20499;-71
2022/01/07 04:12:16;;;;;;;3.58;2.35;;;;;;;;;;2003987;28;20184;-71
2022/01/07 04:13:15;;;;;;;4.17;2.87;;;;;;;;;;2004003;28;20169;-71
2022/01/07 04:14:14;;;;;;;5.60;2.40;;;;;;;;;;2004642;28;20403;-71
2022/01/07 04:15:13;;;;;;;4.60;2.57;;;;;;;;;;2004674;28;20413;-71
2022/01/07 04:16:12;;;;;;;4.17;2.30;;;;;;;;;;2004496;28;20400;-71
2022/01/07 04:17:11;;;;;;;4.03;2.80;;;;;;;;;;2004760;28;20396;-71
2022/01/07 04:18:10;;;;;;;3.70;2.70;;;;;;;;;;2004680;28;20176;-71
2022/01/07 04:19:09;;;;;;;3.45;2.10;;;;;;;;;;2004659;28;20396;-71
2022/01/07 04:20:09;;;;;;;4.13;2.60;;;;;;;;;;2004428;28;20567;-71
2022/01/07 04:21:08;;;;;;;10.77;3.30;;;;;;;;;;2004517;28;20431;-70
2022/01/07 04:22:07;;;;;;;3.73;2.77;;;;;;;;;;2004604;28;20177;-71
2022/01/07 04:23:07;;;;;;;2.20;1.90;;;;;;;;;;2004615;28;20741;-71
2022/01/07 04:24:06;;;;;;;5.72;3.03;;;;;;;;;;2004514;28;20866;-71
2022/01/07 04:25:06;;;;;;;4.27;3.10;;;;;;;;;;2003886;28;20173;-71
2022/01/07 04:26:05;;;;;;;5.18;2.80;;;;;;;;;;2003895;28;20974;-71
2022/01/07 04:27:04;;;;;;;3.07;2.40;;;;;;;;;;2004616;28;20255;-71
2022/01/07 04:28:04;;;;;;;4.50;2.15;;;;;;;;;;2004625;28;20403;-71
2022/01/07 04:29:03;;;;;;;7.80;3.22;;;;;;;;;;2004478;28;20176;-71
2022/01/07 04:30:02;;;;;;;4.53;2.80;;;;;;;;;;2004568;28;20633;-71
2022/01/07 04:31:01;;;;;;;4.97;2.05;;;;;;;;;;2004445;28;20392;-71
2022/01/07 04:32:02;;;;;;;5.72;2.60;;;;;;;;;;2004324;28;20176;-70
2022/01/07 04:33:02;;;;;;;3.65;2.28;;;;;;;;;;2003780;28;20188;-71
2022/01/07 04:34:01;;;;;;;6.47;2.85;;;;;;;;;;2003937;28;20183;-70
2022/01/07 04:35:01;;;;;;;5.50;2.70;;;;;;;;;;2003598;28;20240;-69
2022/01/07 04:36:00;;;;;;;5.25;2.70;;;;;;;;;;2003959;28;20472;-70
2022/01/07 04:36:59;;;;;;;4.47;2.50;;;;;;;;;;2004435;28;20193;-70
2022/01/07 04:37:58;;;;;;;3.55;2.40;;;;;;;;;;2004602;28;20515;-70
2022/01/07 04:38:57;;;;;;;5.53;2.33;;;;;;;;;;2004601;28;20256;-70
2022/01/07 04:39:56;;;;;;;4.40;2.70;;;;;;;;;;2004488;28;20400;-70
2022/01/07 04:40:55;;;;;;;7.10;2.27;;;;;;;;;;2004488;28;20397;-70
2022/01/07 04:41:56;;;;;;;5.57;2.70;;;;;;;;;;2004479;28;20407;-70
2022/01/07 04:42:55;;;;;;;4.75;2.60;;;;;;;;;;2004519;28;20625;-70
2022/01/07 04:43:54;;;;;;;4.22;2.40;;;;;;;;;;2004431;28;20196;-70
2022/01/07 04:44:53;;;;;;;4.73;2.40;;;;;;;;;;2006016;28;20188;-70
2022/01/07 04:45:52;;;;;;;5.33;2.67;;;;;;;;;;2006062;28;20880;-70
2022/01/07 04:46:51;;;;;;;6.03;2.33;;;;;;;;;;2006085;28;20518;-70
2022/01/07 04:47:50;;;;;;;2.23;1.90;;;;;;;;;;2006018;28;20435;-69
2022/01/07 04:48:48;;;;;;;4.70;2.67;;;;;;;;;;2006057;28;20440;-69
2022/01/07 04:49:47;;;;;;;3.60;2.20;;;;;;;;;;2005388;28;20428;-69
2022/01/07 04:50:46;;;;;;;6.50;2.77;;;;;;;;;;2005496;28;20479;-70
2022/01/07 04:51:45;;;;;;;3.33;2.07;;;;;;;;;;2006130;28;20575;-70
2022/01/07 04:52:45;;;;;;;3.17;2.20;;;;;;;;;;2006084;28;20880;-71
2022/01/07 04:53:43;;;;;;;4.28;2.20;;;;;;;;;;2006042;28;20424;-71
2022/01/07 04:54:42;;;;;;;3.00;2.27;;;;;;;;;;2006067;28;20204;-71
2022/01/07 04:55:44;;;;;;;2.90;2.40;;;;;;;;;;2006040;28;20431;-71
2022/01/07 04:56:43;;;;;;;3.50;2.55;;;;;;;;;;2005744;28;20483;-71
2022/01/07 04:57:43;;;;;;;4.17;2.90;;;;;;;;;;2006024;28;20694;-71
2022/01/07 04:58:42;;;;;;;3.88;1.92;;;;;;;;;;2006028;28;20815;-71
2022/01/07 04:59:40;;;;;;;5.27;2.70;;;;;;;;;;2005292;28;20181;-71
2022/01/07 05:00:41;;;;;;;5.10;2.67;;;;;;;;;;2005364;28;20404;-70
2022/01/07 05:01:40;;;;;;;2.80;2.10;;;;;;;;;;2006150;28;20408;-70
2022/01/07 05:02:39;;;;;;;3.07;2.50;;;;;;;;;;2006070;28;20205;-70
2022/01/07 05:03:39;;;;;;;5.40;2.63;;;;;;;;;;2005998;28;20458;-71
2022/01/07 05:04:38;;;;;;;5.30;2.58;;;;;;;;;;2005932;28;20404;-70
2022/01/07 05:05:37;;;;;;;2.60;2.03;;;;;;;;;;2006067;28;20177;-71
2022/01/07 05:06:44;;;;;;;3.33;2.63;;;;;;;;;;2006135;28;20934;-71
2022/01/07 05:07:43;;;;;;;4.00;2.70;;;;;;;;;;2005989;28;20396;-70
2022/01/07 05:08:42;;;;;;;4.63;2.40;;;;;;;;;;2005645;28;20187;-71
2022/01/07 05:09:41;;;;;;;2.80;1.87;;;;;;;;;;2006023;28;20763;-71
2022/01/07 05:10:40;;;;;;;5.40;2.27;;;;;;;;;;2006013;28;20431;-70
2022/01/07 05:11:39;;;;;;;3.00;2.33;;;;;;;;;;2005291;28;20510;-70
2022/01/07 05:12:38;;;;;;;3.83;2.43;;;;;;;;;;2005373;28;20451;-70
2022/01/07 05:13:37;;;;;;;2.65;2.45;;;;;;;;;;2005985;28;20407;-70
2022/01/07 05:14:36;;;;;;;3.53;2.17;;;;;;;;;;2005906;28;20201;-70
2022/01/07 05:15:35;;;;;;;4.80;2.40;;;;;;;;;;2005925;28;20396;-69
2022/01/07 05:16:34;;;;;;;4.43;2.23;;;;;;;;;;2005181;28;20431;-70
2022/01/07 05:17:33;;;;;;;3.55;2.40;;;;;;;;;;2005375;28;20403;-70
2022/01/07 05:18:32;;;;;;;4.32;2.50;;;;;;;;;;2004928;28;20177;-72
2022/01/07 05:19:31;;;;;;;4.47;2.20;;;;;;;;;;2005348;28;20580;-70
2022/01/07 05:20:30;;;;;;;3.17;2.47;;;;;;;;;;2005923;28;20454;-71
2022/01/07 05:21:29;;;;;;;4.00;1.93;;;;;;;;;;2005891;28;20495;-70
2022/01/07 05:22:28;;;;;;;3.40;2.57;;;;;;;;;;2006018;28;20755;-70
2022/01/07 05:23:27;;;;;;;9.15;2.88;;;;;;;;;;2005974;28;20454;-70
2022/01/07 05:24:26;;;;;;;2.97;2.30;;;;;;;;;;2005976;28;20616;-70
2022/01/07 05:25:25;;;;;;;3.60;2.10;;;;;;;;;;2005902;28;20499;-70
2022/01/07 05:26:24;;;;;;;4.15;2.58;;;;;;;;;;2005867;28;20428;-71
2022/01/07 05:27:23;;;;;;;5.53;2.47;;;;;;;;;;2005899;28;20170;-71
2022/01/07 05:28:22;;;;;;;4.40;2.40;;;;;;;;;;2005905;28;20431;-72
2022/01/07 05:29:21;;;;;;;6.50;2.27;;;;;;;;;;2005798;28;20563;-72
2022/01/07 05:30:20;;;;;;;3.97;2.50;;;;;;;;;;2005835;28;20404;-70
2022/01/07 05:31:22;;;;;;;4.50;2.00;;;;;;;;;;2005693;28;20875;-71
2022/01/07 05:32:21;;;;;;;3.47;2.33;;;;;;;;;;2005796;28;20416;-70
2022/01/07 05:33:20;;;;;;;3.70;2.27;;;;;;;;;;2005745;28;20640;-70
2022/01/07 05:34:19;;;;;;;4.63;2.33;;;;;;;;;;2005702;28;20426;-70
2022/01/07 05:35:18;;;;;;;6.07;2.60;;;;;;;;;;2005693;28;20415;-70
2022/01/07 05:36:18;;;;;;;4.50;2.30;;;;;;;;;;2005719;28;20249;-69
2022/01/07 05:37:17;;;;;;;4.60;2.67;;;;;;;;;;2005159;28;20424;-69
2022/01/07 05:38:16;;;;;;;3.67;2.30;;;;;;;;;;2005149;28;20201;-70
2022/01/07 05:39:15;;;;;;;5.03;2.10;;;;;;;;;;2005630;28;20405;-70
2022/01/07 05:40:14;;;;;;;2.43;2.10;;;;;;;;;;2005782;28;20410;-70
2022/01/07 05:41:13;;;;;;;3.20;2.25;;;;;;;;;;2005654;28;20402;-71
2022/01/07 05:42:12;;;;;;;2.88;2.30;;;;;;;;;;2005745;28;20567;-70
2022/01/07 05:43:11;;;;;;;7.00;2.93;;;;;;;;;;2005012;28;20240;-70
2022/01/07 05:44:10;;;;;;;3.60;1.90;;;;;;;;;;2005027;28;20396;-70
2022/01/07 05:45:09;;;;;;;3.47;2.50;;;;;;;;;;2005642;28;20404;-70
2022/01/07 05:46:10;;;;;;;2.85;2.20;;;;;;;;;;2005549;28;20788;-71
2022/01/07 05:47:09;;;;;;;5.78;2.55;;;;;;;;;;2005658;28;20161;-70
2022/01/07 05:48:08;;;;;;;3.53;2.50;;;;;;;;;;2005707;28;20655;-70
2022/01/07 05:49:07;;;;;;;4.63;2.37;;;;;;;;;;2005767;28;20444;-70
2022/01/07 05:50:06;;;;;;;2.53;2.17;;;;;;;;;;2005041;28;20416;-70
2022/01/07 05:51:05;;;;;;;2.63;2.00;;;;;;;;;;2005060;28;20490;-69
2022/01/07 05:52:04;;;;;;;3.50;2.30;;;;;;;;;;2005691;28;20166;-70
2022/01/07 05:53:03;;;;;;;3.30;2.08;;;;;;;;;;2005710;28;20404;-70
2022/01/07 05:54:02;;;;;;;2.60;2.07;;;;;;;;;;2005683;28;20223;-70
2022/01/07 05:55:01;;;;;;;3.80;2.30;;;;;;;;;;2005596;28;20451;-70